createdAt,value
2023-03-14T00:00:08.550Z,969.506
2023-03-14T00:01:08.137Z,969.553
2023-03-14T00:02:09.001Z,969.551
2023-03-14T00:03:08.897Z,969.577
2023-03-14T00:04:08.457Z,969.545
2023-03-14T00:05:08.054Z,969.621
2023-03-14T00:06:08.666Z,969.702
2023-03-14T00:07:08.271Z,969.641
2023-03-14T00:08:08.739Z,969.722
2023-03-14T00:09:08.355Z,969.668
2023-03-14T00:10:08.840Z,969.691
2023-03-14T00:11:08.396Z,969.802
2023-03-14T00:12:08.967Z,969.613
2023-03-14T00:13:08.496Z,969.709
2023-03-14T00:14:08.050Z,969.617
2023-03-14T00:15:08.663Z,969.717
2023-03-14T00:16:08.356Z,969.663
2023-03-14T00:17:07.985Z,969.666
2023-03-14T00:18:08.645Z,969.701
2023-03-14T00:19:08.086Z,969.605
2023-03-14T00:20:08.576Z,969.554
2023-03-14T00:21:08.156Z,969.637
2023-03-14T00:22:08.692Z,969.608
2023-03-14T00:23:08.218Z,969.750
2023-03-14T00:24:08.864Z,969.688
2023-03-14T00:25:08.399Z,969.755
2023-03-14T00:26:08.874Z,969.988
2023-03-14T00:27:08.481Z,969.790
2023-03-14T00:28:09.260Z,969.816
2023-03-14T00:29:08.910Z,969.854
2023-03-14T00:30:08.429Z,969.953
2023-03-14T00:31:08.959Z,969.928
2023-03-14T00:32:08.912Z,969.761
2023-03-14T00:33:08.654Z,969.792
2023-03-14T00:34:08.846Z,969.889
2023-03-14T00:35:08.445Z,969.970
2023-03-14T00:36:08.077Z,969.871
2023-03-14T00:37:08.683Z,969.892
2023-03-14T00:38:08.245Z,969.901
2023-03-14T00:39:08.939Z,970.024
2023-03-14T00:40:08.468Z,970.066
2023-03-14T00:41:08.030Z,970.016
2023-03-14T00:42:08.625Z,969.964
2023-03-14T00:43:08.368Z,970.029
2023-03-14T00:44:09.004Z,970.190
2023-03-14T00:45:08.515Z,970.160
2023-03-14T00:46:08.196Z,970.091
2023-03-14T00:47:08.098Z,970.199
2023-03-14T00:48:08.708Z,970.024
2023-03-14T00:49:08.219Z,970.128
2023-03-14T00:50:08.948Z,970.118
2023-03-14T00:51:08.564Z,970.114
2023-03-14T00:52:07.996Z,970.186
2023-03-14T00:53:08.525Z,970.068
2023-03-14T00:54:08.024Z,970.126
2023-03-14T00:55:08.597Z,970.184
2023-03-14T00:56:08.160Z,970.108
2023-03-14T00:57:08.734Z,970.184
2023-03-14T00:58:08.293Z,970.022
2023-03-14T00:59:08.028Z,970.063
2023-03-14T01:00:08.777Z,969.930
2023-03-14T01:01:08.354Z,970.125
2023-03-14T01:02:08.228Z,969.942
2023-03-14T01:03:08.361Z,970.010
2023-03-14T01:04:08.905Z,970.087
2023-03-14T01:05:08.541Z,970.173
2023-03-14T01:06:08.220Z,970.178
2023-03-14T01:07:08.712Z,970.150
2023-03-14T01:08:08.285Z,970.166
2023-03-14T01:09:08.776Z,970.269
2023-03-14T01:10:08.318Z,970.110
2023-03-14T01:11:08.892Z,970.065
2023-03-14T01:12:08.444Z,970.022
2023-03-14T01:13:08.036Z,969.929
2023-03-14T01:14:08.541Z,970.009
2023-03-14T01:15:08.188Z,970.118
2023-03-14T01:16:08.848Z,970.113
2023-03-14T01:17:08.561Z,969.997
2023-03-14T01:18:08.378Z,970.162
2023-03-14T01:19:08.992Z,970.073
2023-03-14T01:20:08.707Z,970.099
2023-03-14T01:21:08.257Z,969.948
2023-03-14T01:22:08.892Z,969.957
2023-03-14T01:23:08.449Z,969.941
2023-03-14T01:24:08.157Z,969.876
2023-03-14T01:25:08.665Z,969.924
2023-03-14T01:26:08.281Z,969.909
2023-03-14T01:27:08.794Z,969.923
2023-03-14T01:28:08.331Z,969.765
2023-03-14T01:29:08.906Z,969.665
2023-03-14T01:30:08.428Z,969.567
2023-03-14T01:31:08.160Z,969.621
2023-03-14T01:32:09.107Z,969.687
2023-03-14T01:33:08.082Z,969.621
2023-03-14T01:34:08.709Z,969.725
2023-03-14T01:35:08.680Z,969.672
2023-03-14T01:36:08.385Z,969.649
2023-03-14T01:37:08.674Z,969.582
2023-03-14T01:38:08.180Z,969.667
2023-03-14T01:39:08.862Z,969.579
2023-03-14T01:40:08.477Z,969.696
2023-03-14T01:41:08.387Z,969.625
2023-03-14T01:42:08.984Z,969.608
2023-03-14T01:43:08.605Z,969.713
2023-03-14T01:44:08.232Z,969.583
2023-03-14T01:45:08.712Z,969.675
2023-03-14T01:46:08.579Z,969.621
2023-03-14T01:47:08.118Z,969.656
2023-03-14T01:48:08.681Z,969.632
2023-03-14T01:49:08.219Z,969.610
2023-03-14T01:50:08.748Z,969.680
2023-03-14T01:51:08.300Z,969.637
2023-03-14T01:52:08.820Z,969.511
2023-03-14T01:53:08.305Z,969.485
2023-03-14T01:54:08.829Z,969.440
2023-03-14T01:55:08.406Z,969.538
2023-03-14T01:56:08.949Z,969.652
2023-03-14T01:57:08.542Z,969.719
2023-03-14T01:58:08.109Z,969.622
2023-03-14T01:59:08.672Z,969.524
2023-03-14T02:00:08.221Z,969.740
2023-03-14T02:01:08.913Z,969.657
2023-03-14T02:02:08.652Z,969.615
2023-03-14T02:03:08.320Z,969.641
2023-03-14T02:04:08.085Z,969.568
2023-03-14T02:05:08.733Z,969.572
2023-03-14T02:06:08.280Z,969.537
2023-03-14T02:07:08.140Z,969.674
2023-03-14T02:08:08.681Z,969.630
2023-03-14T02:09:08.233Z,969.618
2023-03-14T02:10:08.792Z,969.555
2023-03-14T02:11:08.384Z,969.531
2023-03-14T02:12:08.037Z,969.620
2023-03-14T02:13:08.676Z,969.607
2023-03-14T02:14:08.281Z,969.601
2023-03-14T02:15:08.844Z,969.550
2023-03-14T02:16:08.374Z,969.604
2023-03-14T02:17:08.201Z,969.637
2023-03-14T02:18:08.765Z,969.454
2023-03-14T02:19:08.293Z,969.531
2023-03-14T02:20:08.989Z,969.466
2023-03-14T02:21:08.530Z,969.590
2023-03-14T02:22:08.136Z,969.625
2023-03-14T02:23:08.661Z,969.451
2023-03-14T02:24:08.196Z,969.421
2023-03-14T02:25:08.860Z,969.427
2023-03-14T02:26:08.442Z,969.398
2023-03-14T02:27:08.976Z,969.287
2023-03-14T02:28:08.562Z,969.367
2023-03-14T02:29:08.061Z,969.322
2023-03-14T02:30:08.721Z,969.275
2023-03-14T02:31:08.325Z,969.197
2023-03-14T02:32:08.133Z,969.185
2023-03-14T02:33:08.053Z,969.229
2023-03-14T02:34:08.652Z,969.302
2023-03-14T02:35:08.171Z,969.324
2023-03-14T02:36:08.906Z,969.284
2023-03-14T02:37:08.457Z,969.189
2023-03-14T02:38:08.077Z,969.202
2023-03-14T02:39:08.555Z,969.196
2023-03-14T02:40:08.227Z,969.082
2023-03-14T02:41:08.959Z,969.125
2023-03-14T02:42:08.592Z,969.126
2023-03-14T02:43:08.112Z,969.191
2023-03-14T02:44:08.663Z,968.958
2023-03-14T02:45:08.143Z,969.000
2023-03-14T02:46:08.792Z,968.996
2023-03-14T02:47:08.438Z,969.083
2023-03-14T02:48:08.081Z,968.842
2023-03-14T02:49:08.647Z,969.082
2023-03-14T02:50:08.261Z,968.981
2023-03-14T02:51:08.872Z,968.944
2023-03-14T02:52:08.469Z,968.961
2023-03-14T02:53:08.036Z,969.048
2023-03-14T02:54:08.534Z,968.879
2023-03-14T02:55:08.056Z,968.884
2023-03-14T02:56:08.666Z,968.882
2023-03-14T02:57:08.137Z,968.905
2023-03-14T02:58:08.689Z,968.885
2023-03-14T02:59:08.205Z,968.865
2023-03-14T03:00:08.845Z,968.833
2023-03-14T03:01:08.481Z,968.779
2023-03-14T03:02:08.261Z,968.727
2023-03-14T03:03:08.896Z,968.809
2023-03-14T03:04:08.665Z,968.804
2023-03-14T03:05:08.233Z,968.978
2023-03-14T03:06:08.878Z,968.939
2023-03-14T03:07:08.386Z,968.901
2023-03-14T03:08:09.035Z,968.858
2023-03-14T03:09:08.601Z,968.769
2023-03-14T03:10:08.184Z,968.841
2023-03-14T03:11:08.687Z,968.902
2023-03-14T03:12:08.216Z,968.812
2023-03-14T03:13:08.700Z,968.897
2023-03-14T03:14:08.231Z,968.967
2023-03-14T03:15:08.856Z,968.965
2023-03-14T03:16:08.529Z,968.896
2023-03-14T03:17:08.209Z,968.897
2023-03-14T03:18:09.102Z,968.898
2023-03-14T03:19:08.694Z,968.927
2023-03-14T03:20:08.269Z,968.881
2023-03-14T03:21:08.826Z,968.882
2023-03-14T03:22:08.413Z,968.944
2023-03-14T03:23:08.952Z,968.914
2023-03-14T03:24:08.460Z,968.936
2023-03-14T03:25:08.053Z,968.934
2023-03-14T03:26:08.605Z,968.924
2023-03-14T03:27:08.131Z,968.688
2023-03-14T03:28:08.722Z,968.774
2023-03-14T03:29:08.245Z,968.765
2023-03-14T03:30:08.849Z,968.684
2023-03-14T03:31:08.768Z,968.613
2023-03-14T03:32:08.399Z,968.696
2023-03-14T03:33:08.037Z,968.721
2023-03-14T03:34:08.552Z,968.757
2023-03-14T03:35:08.169Z,968.616
2023-03-14T03:36:08.850Z,968.651
2023-03-14T03:37:08.648Z,968.515
2023-03-14T03:38:08.219Z,968.573
2023-03-14T03:39:08.755Z,968.705
2023-03-14T03:40:08.544Z,968.662
2023-03-14T03:41:08.352Z,968.583
2023-03-14T03:42:08.957Z,968.645
2023-03-14T03:43:08.606Z,968.631
2023-03-14T03:44:08.275Z,968.593
2023-03-14T03:45:08.864Z,968.761
2023-03-14T03:46:08.558Z,968.636
2023-03-14T03:47:08.356Z,968.687
2023-03-14T03:48:08.869Z,968.604
2023-03-14T03:49:08.508Z,968.616
2023-03-14T03:50:08.085Z,968.511
2023-03-14T03:51:08.618Z,968.567
2023-03-14T03:52:08.197Z,968.746
2023-03-14T03:53:08.805Z,968.611
2023-03-14T03:54:08.477Z,968.636
2023-03-14T03:55:08.997Z,968.719
2023-03-14T03:56:08.701Z,968.576
2023-03-14T03:57:08.303Z,968.677
2023-03-14T03:58:08.833Z,968.605
2023-03-14T03:59:08.550Z,968.577
2023-03-14T04:00:08.313Z,968.486
2023-03-14T04:01:08.887Z,968.497
2023-03-14T04:02:08.504Z,968.606
2023-03-14T04:03:08.076Z,968.517
2023-03-14T04:04:08.691Z,968.565
2023-03-14T04:05:08.716Z,968.456
2023-03-14T04:06:08.371Z,968.487
2023-03-14T04:07:08.331Z,968.409
2023-03-14T04:08:08.815Z,968.418
2023-03-14T04:09:08.423Z,968.282
2023-03-14T04:10:08.944Z,968.304
2023-03-14T04:11:08.457Z,968.391
2023-03-14T04:12:08.151Z,968.332
2023-03-14T04:13:08.659Z,968.478
2023-03-14T04:14:08.246Z,968.384
2023-03-14T04:15:08.021Z,968.358
2023-03-14T04:16:09.764Z,968.380
2023-03-14T04:17:09.420Z,968.221
2023-03-14T04:18:09.552Z,968.123
2023-03-14T04:19:08.172Z,968.173
2023-03-14T04:20:08.690Z,968.182
2023-03-14T04:21:08.591Z,968.248
2023-03-14T04:22:08.219Z,968.232
2023-03-14T04:23:08.461Z,968.168
2023-03-14T04:24:08.032Z,968.054
2023-03-14T04:25:08.550Z,968.154
2023-03-14T04:26:08.198Z,968.208
2023-03-14T04:27:08.696Z,968.186
2023-03-14T04:28:08.225Z,968.135
2023-03-14T04:29:08.766Z,968.151
2023-03-14T04:30:08.352Z,968.123
2023-03-14T04:31:08.865Z,968.200
2023-03-14T04:32:08.724Z,968.218
2023-03-14T04:33:08.391Z,968.135
2023-03-14T04:34:08.716Z,968.134
2023-03-14T04:35:08.277Z,968.028
2023-03-14T04:36:09.035Z,967.940
2023-03-14T04:37:08.259Z,967.944
2023-03-14T04:38:08.880Z,967.884
2023-03-14T04:39:08.420Z,968.045
2023-03-14T04:40:09.089Z,968.017
2023-03-14T04:41:08.671Z,967.761
2023-03-14T04:42:08.274Z,967.905
2023-03-14T04:43:08.042Z,967.951
2023-03-14T04:44:08.529Z,967.872
2023-03-14T04:45:08.170Z,967.912
2023-03-14T04:46:08.963Z,967.927
2023-03-14T04:47:08.964Z,968.054
2023-03-14T04:48:08.549Z,968.009
2023-03-14T04:49:08.069Z,968.190
2023-03-14T04:50:08.565Z,967.921
2023-03-14T04:51:08.110Z,967.964
2023-03-14T04:52:08.614Z,967.977
2023-03-14T04:53:08.133Z,967.868
2023-03-14T04:54:08.613Z,968.019
2023-03-14T04:55:08.249Z,967.949
2023-03-14T04:56:08.885Z,967.990
2023-03-14T04:57:08.414Z,967.872
2023-03-14T04:58:08.045Z,967.921
2023-03-14T04:59:08.604Z,967.938
2023-03-14T05:00:08.096Z,967.801
2023-03-14T05:01:08.746Z,968.025
2023-03-14T05:02:08.597Z,967.818
2023-03-14T05:03:08.341Z,967.978
2023-03-14T05:04:08.919Z,967.954
2023-03-14T05:05:08.413Z,967.889
2023-03-14T05:06:08.071Z,967.889
2023-03-14T05:07:08.600Z,967.994
2023-03-14T05:08:08.268Z,967.968
2023-03-14T05:09:08.760Z,967.911
2023-03-14T05:10:08.232Z,967.827
2023-03-14T05:11:08.881Z,967.890
2023-03-14T05:12:08.405Z,967.939
2023-03-14T05:13:08.037Z,967.915
2023-03-14T05:14:08.557Z,967.996
2023-03-14T05:15:08.185Z,967.896
2023-03-14T05:16:09.156Z,967.982
2023-03-14T05:17:08.997Z,967.741
2023-03-14T05:18:08.677Z,967.911
2023-03-14T05:19:08.170Z,967.864
2023-03-14T05:20:08.681Z,967.937
2023-03-14T05:21:08.477Z,967.960
2023-03-14T05:22:08.121Z,967.933
2023-03-14T05:23:08.901Z,968.004
2023-03-14T05:24:08.445Z,967.846
2023-03-14T05:25:08.996Z,967.935
2023-03-14T05:26:08.624Z,967.798
2023-03-14T05:27:08.428Z,967.874
2023-03-14T05:28:08.037Z,967.838
2023-03-14T05:29:08.535Z,967.896
2023-03-14T05:30:08.090Z,967.779
2023-03-14T05:31:08.719Z,967.887
2023-03-14T05:32:08.577Z,967.885
2023-03-14T05:33:08.416Z,967.762
2023-03-14T05:34:08.105Z,967.778
2023-03-14T05:35:08.930Z,967.751
2023-03-14T05:36:08.691Z,967.774
2023-03-14T05:37:08.279Z,967.877
2023-03-14T05:38:08.339Z,967.793
2023-03-14T05:39:08.929Z,967.758
2023-03-14T05:40:08.641Z,967.689
2023-03-14T05:41:08.321Z,967.765
2023-03-14T05:42:08.992Z,967.708
2023-03-14T05:43:08.561Z,967.653
2023-03-14T05:44:08.290Z,967.752
2023-03-14T05:45:08.873Z,967.634
2023-03-14T05:46:08.565Z,967.772
2023-03-14T05:47:08.149Z,967.627
2023-03-14T05:48:08.720Z,967.687
2023-03-14T05:49:08.286Z,967.685
2023-03-14T05:50:08.876Z,967.665
2023-03-14T05:51:08.446Z,967.715
2023-03-14T05:52:08.929Z,967.669
2023-03-14T05:53:08.509Z,967.515
2023-03-14T05:54:08.969Z,967.634
2023-03-14T05:55:08.508Z,967.501
2023-03-14T05:56:08.064Z,967.504
2023-03-14T05:57:08.564Z,967.623
2023-03-14T05:58:08.315Z,967.584
2023-03-14T05:59:08.841Z,967.517
2023-03-14T06:00:08.372Z,967.571
2023-03-14T06:01:08.993Z,967.625
2023-03-14T06:02:08.670Z,967.510
2023-03-14T06:03:08.452Z,967.445
2023-03-14T06:04:08.292Z,967.510
2023-03-14T06:05:08.013Z,967.580
2023-03-14T06:06:08.680Z,967.527
2023-03-14T06:07:08.260Z,967.543
2023-03-14T06:08:08.988Z,967.409
2023-03-14T06:09:08.550Z,967.445
2023-03-14T06:10:08.258Z,967.426
2023-03-14T06:11:08.840Z,967.467
2023-03-14T06:12:08.629Z,967.489
2023-03-14T06:13:08.213Z,967.512
2023-03-14T06:14:08.720Z,967.578
2023-03-14T06:15:08.024Z,967.578
2023-03-14T06:16:08.420Z,967.551
2023-03-14T06:17:08.202Z,967.618
2023-03-14T06:18:08.633Z,967.614
2023-03-14T06:19:08.060Z,967.674
2023-03-14T06:20:08.425Z,967.562
2023-03-14T06:21:08.837Z,967.724
2023-03-14T06:22:08.219Z,967.664
2023-03-14T06:23:08.561Z,967.577
2023-03-14T06:24:08.033Z,967.522
2023-03-14T06:25:08.336Z,967.619
2023-03-14T06:26:08.841Z,967.513
2023-03-14T06:27:08.239Z,967.685
2023-03-14T06:28:08.644Z,967.596
2023-03-14T06:29:08.240Z,967.615
2023-03-14T06:30:08.452Z,967.593
2023-03-14T06:31:08.965Z,967.565
2023-03-14T06:32:08.241Z,967.664
2023-03-14T06:33:08.852Z,967.672
2023-03-14T06:34:08.273Z,967.583
2023-03-14T06:35:08.671Z,967.704
2023-03-14T06:36:08.073Z,967.719
2023-03-14T06:37:08.352Z,967.570
2023-03-14T06:38:08.884Z,967.656
2023-03-14T06:39:08.236Z,967.762
2023-03-14T06:40:08.836Z,967.807
2023-03-14T06:41:08.186Z,967.640
2023-03-14T06:42:08.650Z,967.642
2023-03-14T06:43:08.041Z,967.657
2023-03-14T06:44:08.309Z,967.752
2023-03-14T06:45:08.825Z,967.585
2023-03-14T06:46:08.332Z,967.689
2023-03-14T06:47:08.161Z,967.619
2023-03-14T06:48:08.639Z,967.586
2023-03-14T06:49:08.139Z,967.596
2023-03-14T06:50:08.643Z,967.632
2023-03-14T06:51:08.057Z,967.656
2023-03-14T06:52:08.339Z,967.697
2023-03-14T06:53:08.898Z,967.684
2023-03-14T06:54:08.329Z,967.664
2023-03-14T06:55:08.647Z,967.662
2023-03-14T06:56:08.100Z,967.801
2023-03-14T06:57:08.553Z,967.650
2023-03-14T06:58:08.956Z,967.807
2023-03-14T06:59:08.264Z,967.729
2023-03-14T07:00:08.760Z,967.719
2023-03-14T07:01:08.306Z,967.757
2023-03-14T07:02:08.130Z,967.697
2023-03-14T07:03:08.549Z,967.841
2023-03-14T07:04:08.872Z,967.588
2023-03-14T07:05:08.385Z,967.785
2023-03-14T07:06:08.677Z,967.658
2023-03-14T07:07:08.089Z,967.764
2023-03-14T07:08:08.477Z,967.757
2023-03-14T07:09:08.743Z,967.810
2023-03-14T07:10:08.078Z,967.777
2023-03-14T07:11:08.348Z,967.677
2023-03-14T07:12:08.664Z,967.748
2023-03-14T07:13:08.226Z,967.735
2023-03-14T07:14:08.565Z,967.713
2023-03-14T07:15:18.033Z,967.629
2023-03-14T07:16:08.715Z,967.642
2023-03-14T07:17:08.297Z,967.631
2023-03-14T07:18:08.801Z,967.537
2023-03-14T07:19:08.236Z,967.589
2023-03-14T07:20:08.647Z,967.518
2023-03-14T07:21:08.085Z,967.556
2023-03-14T07:22:08.612Z,967.486
2023-03-14T07:23:08.978Z,967.542
2023-03-14T07:24:08.496Z,967.459
2023-03-14T07:25:08.720Z,967.616
2023-03-14T07:26:08.214Z,967.455
2023-03-14T07:27:09.609Z,967.524
2023-03-14T07:28:08.697Z,967.469
2023-03-14T07:29:08.187Z,967.563
2023-03-14T07:30:08.616Z,967.542
2023-03-14T07:31:08.313Z,967.554
2023-03-14T07:32:08.843Z,967.500
2023-03-14T07:33:10.414Z,967.507
2023-03-14T07:34:08.848Z,967.568
2023-03-14T07:35:08.106Z,967.617
2023-03-14T07:36:08.572Z,967.682
2023-03-14T07:37:09.041Z,967.592
2023-03-14T07:38:08.410Z,967.657
2023-03-14T07:39:08.674Z,967.579
2023-03-14T07:40:08.208Z,967.766
2023-03-14T07:41:08.896Z,967.683
2023-03-14T07:42:08.281Z,967.655
2023-03-14T07:43:08.850Z,967.647
2023-03-14T07:44:08.417Z,967.792
2023-03-14T07:45:08.851Z,967.744
2023-03-14T07:46:08.455Z,967.685
2023-03-14T07:47:08.906Z,967.748
2023-03-14T07:48:08.349Z,967.851
2023-03-14T07:49:08.627Z,967.656
2023-03-14T07:50:08.125Z,967.703
2023-03-14T07:51:08.660Z,967.686
2023-03-14T07:52:08.045Z,967.789
2023-03-14T07:53:08.819Z,967.791
2023-03-14T07:54:08.433Z,967.859
2023-03-14T07:55:08.793Z,967.946
2023-03-14T07:56:08.425Z,967.971
2023-03-14T07:57:08.984Z,967.904
2023-03-14T07:58:08.341Z,967.911
2023-03-14T07:59:08.588Z,967.882
2023-03-14T08:00:08.994Z,967.766
2023-03-14T08:01:08.720Z,967.878
2023-03-14T08:02:08.196Z,967.892
2023-03-14T08:03:08.831Z,967.848
2023-03-14T08:04:08.578Z,968.037
2023-03-14T08:05:08.196Z,967.908
2023-03-14T08:06:08.204Z,968.050
2023-03-14T08:07:08.789Z,967.981
2023-03-14T08:08:08.073Z,967.940
2023-03-14T08:09:08.477Z,968.127
2023-03-14T08:10:08.991Z,968.031
2023-03-14T08:11:08.463Z,968.084
2023-03-14T08:12:07.996Z,968.134
2023-03-14T08:13:08.616Z,968.013
2023-03-14T08:14:08.129Z,968.077
2023-03-14T08:15:08.517Z,968.140
2023-03-14T08:16:08.346Z,968.040
2023-03-14T08:17:08.963Z,968.082
2023-03-14T08:18:08.854Z,968.014
2023-03-14T08:19:08.294Z,967.972
2023-03-14T08:20:08.752Z,968.007
2023-03-14T08:21:08.592Z,967.968
2023-03-14T08:22:08.112Z,968.095
2023-03-14T08:23:08.544Z,967.928
2023-03-14T08:24:08.086Z,967.934
2023-03-14T08:25:08.421Z,968.006
2023-03-14T08:26:08.592Z,968.022
2023-03-14T08:27:10.909Z,967.941
2023-03-14T08:28:08.678Z,967.928
2023-03-14T08:29:08.315Z,967.951
2023-03-14T08:30:08.117Z,967.938
2023-03-14T08:31:08.207Z,967.942
2023-03-14T08:32:08.210Z,967.957
2023-03-14T08:33:08.335Z,967.951
2023-03-14T08:34:08.057Z,967.921
2023-03-14T08:35:09.019Z,967.827
2023-03-14T08:36:08.971Z,967.947
2023-03-14T08:37:13.644Z,967.910
2023-03-14T08:38:08.272Z,967.829
2023-03-14T08:39:09.209Z,967.813
2023-03-14T08:40:08.367Z,967.930
2023-03-14T08:41:08.364Z,967.801
2023-03-14T08:42:08.032Z,967.861
2023-03-14T08:43:08.784Z,967.841
2023-03-14T08:44:08.631Z,967.648
2023-03-14T08:45:08.705Z,967.891
2023-03-14T08:46:08.391Z,967.767
2023-03-14T08:47:08.395Z,967.738
2023-03-14T08:48:08.080Z,967.877
2023-03-14T08:49:08.089Z,967.887
2023-03-14T08:50:08.120Z,967.876
2023-03-14T08:51:08.824Z,967.803
2023-03-14T08:52:08.413Z,967.842
2023-03-14T08:53:08.358Z,967.744
2023-03-14T08:54:08.023Z,967.681
2023-03-14T08:55:08.797Z,967.775
2023-03-14T08:56:08.385Z,967.722
2023-03-14T08:57:08.197Z,967.757
2023-03-14T08:58:08.107Z,967.793
2023-03-14T08:59:08.872Z,967.780
2023-03-14T09:00:08.493Z,967.754
2023-03-14T09:01:08.053Z,967.831
2023-03-14T09:02:08.798Z,967.781
2023-03-14T09:03:08.719Z,967.783
2023-03-14T09:04:08.669Z,967.794
2023-03-14T09:05:08.648Z,967.757
2023-03-14T09:06:08.432Z,967.727
2023-03-14T09:07:08.339Z,967.686
2023-03-14T09:08:08.190Z,967.736
2023-03-14T09:09:08.948Z,967.611
2023-03-14T09:10:08.599Z,967.695
2023-03-14T09:11:08.132Z,967.791
2023-03-14T09:12:08.768Z,967.776
2023-03-14T09:13:08.369Z,967.601
2023-03-14T09:14:08.078Z,967.691
2023-03-14T09:15:08.845Z,967.648
2023-03-14T09:16:08.660Z,967.721
2023-03-14T09:17:08.541Z,967.689
2023-03-14T09:18:08.429Z,967.626
2023-03-14T09:19:08.205Z,967.670
2023-03-14T09:20:08.986Z,967.578
2023-03-14T09:21:08.798Z,967.675
2023-03-14T09:22:08.437Z,967.512
2023-03-14T09:23:08.985Z,967.511
2023-03-14T09:24:09.001Z,967.562
2023-03-14T09:25:08.803Z,967.589
2023-03-14T09:26:08.385Z,967.518
2023-03-14T09:27:08.036Z,967.654
2023-03-14T09:28:08.628Z,967.653
2023-03-14T09:29:08.256Z,967.581
2023-03-14T09:30:08.951Z,967.687
2023-03-14T09:31:08.544Z,967.609
2023-03-14T09:32:08.457Z,967.628
2023-03-14T09:33:08.424Z,967.631
2023-03-14T09:34:08.106Z,967.656
2023-03-14T09:35:08.990Z,967.531
2023-03-14T09:36:08.734Z,967.606
2023-03-14T09:37:08.622Z,967.644
2023-03-14T09:38:08.288Z,967.611
2023-03-14T09:39:09.000Z,967.626
2023-03-14T09:40:10.018Z,967.516
2023-03-14T09:41:08.146Z,967.620
2023-03-14T09:42:08.826Z,967.545
2023-03-14T09:43:08.531Z,967.491
2023-03-14T09:44:08.601Z,967.432
2023-03-14T09:45:08.377Z,967.490
2023-03-14T09:46:08.472Z,967.582
2023-03-14T09:47:08.175Z,967.455
2023-03-14T09:49:12.242Z,967.433
2023-03-14T09:50:12.695Z,967.458
2023-03-14T09:51:12.629Z,967.210
2023-03-14T09:52:12.324Z,967.433
2023-03-14T09:53:12.190Z,967.606
2023-03-14T09:54:12.821Z,967.452
2023-03-14T09:55:12.450Z,967.523
2023-03-14T09:56:12.120Z,967.336
2023-03-14T09:57:12.746Z,967.501
2023-03-14T09:58:12.489Z,967.545
2023-03-14T09:59:12.061Z,967.592
2023-03-14T10:00:12.662Z,967.535
2023-03-14T10:01:12.574Z,967.531
2023-03-14T10:02:12.020Z,967.553
2023-03-14T10:03:12.637Z,967.494
2023-03-14T10:04:12.343Z,967.666
2023-03-14T10:05:12.109Z,967.637
2023-03-14T10:06:12.816Z,967.502
2023-03-14T10:07:12.448Z,967.131
2023-03-14T10:08:12.202Z,967.483
2023-03-14T10:09:12.788Z,967.545
2023-03-14T10:10:12.530Z,967.592
2023-03-14T10:11:12.194Z,967.505
2023-03-14T10:12:12.937Z,967.483
2023-03-14T10:13:12.278Z,967.479
2023-03-14T10:14:12.885Z,967.288
2023-03-14T10:15:12.754Z,967.499
2023-03-14T10:16:12.378Z,967.473
2023-03-14T10:17:12.088Z,967.446
2023-03-14T10:18:12.747Z,967.594
2023-03-14T10:19:12.317Z,967.449
2023-03-14T10:20:12.115Z,967.306
2023-03-14T10:21:12.829Z,967.469
2023-03-14T10:22:12.621Z,967.517
2023-03-14T10:23:12.528Z,967.473
2023-03-14T10:24:12.316Z,967.457
2023-03-14T10:25:12.980Z,967.373
2023-03-14T10:26:12.695Z,967.408
2023-03-14T10:27:12.308Z,967.382
2023-03-14T10:28:12.204Z,967.403
2023-03-14T10:29:12.825Z,967.442
2023-03-14T10:30:12.458Z,967.516
2023-03-14T10:31:12.408Z,967.479
2023-03-14T10:32:12.084Z,967.363
2023-03-14T10:33:12.040Z,967.469
2023-03-14T10:34:12.669Z,967.581
2023-03-14T10:35:12.340Z,967.485
2023-03-14T10:36:13.959Z,967.504
2023-03-14T10:37:12.849Z,967.575
2023-03-14T10:38:12.586Z,967.478
2023-03-14T10:39:12.425Z,967.435
2023-03-14T10:40:12.069Z,967.579
2023-03-14T10:41:12.817Z,967.619
2023-03-14T10:42:12.500Z,967.626
2023-03-14T10:43:12.319Z,967.614
2023-03-14T10:44:12.976Z,967.727
2023-03-14T10:45:12.704Z,967.583
2023-03-14T10:46:12.577Z,967.449
2023-03-14T10:47:12.777Z,967.733
2023-03-14T10:48:12.520Z,967.571
2023-03-14T10:49:12.293Z,967.742
2023-03-14T10:50:12.937Z,967.803
2023-03-14T10:51:12.690Z,967.680
2023-03-14T10:52:12.489Z,967.780
2023-03-14T10:54:17.756Z,967.764
2023-03-14T10:55:17.490Z,967.737
2023-03-14T10:56:17.237Z,967.625
2023-03-14T10:57:17.080Z,967.751
2023-03-14T10:58:17.658Z,967.642
2023-03-14T10:59:17.436Z,967.774
2023-03-14T11:00:17.105Z,967.695
2023-03-14T11:01:17.768Z,967.757
2023-03-14T11:02:17.130Z,967.631
2023-03-14T11:03:17.945Z,967.750
2023-03-14T11:04:17.532Z,967.625
2023-03-14T11:05:17.634Z,967.752
2023-03-14T11:06:17.203Z,967.405
2023-03-14T11:07:17.952Z,967.548
2023-03-14T11:08:17.691Z,967.728
2023-03-14T11:09:17.252Z,967.794
2023-03-14T11:10:17.894Z,967.799
2023-03-14T11:11:17.580Z,967.540
2023-03-14T11:12:17.176Z,967.794
2023-03-14T11:13:17.887Z,967.632
2023-03-14T11:14:17.491Z,967.674
2023-03-14T11:15:17.099Z,967.680
2023-03-14T11:16:17.251Z,967.664
2023-03-14T11:17:17.216Z,967.621
2023-03-14T11:18:17.992Z,967.566
2023-03-14T11:19:17.663Z,967.485
2023-03-14T11:20:17.337Z,967.521
2023-03-14T11:21:17.042Z,967.449
2023-03-14T11:22:17.852Z,967.492
2023-03-14T11:23:17.416Z,967.449
2023-03-14T11:24:17.097Z,967.317
2023-03-14T11:25:17.763Z,967.385
2023-03-14T11:26:17.284Z,967.404
2023-03-14T11:27:17.904Z,967.552
2023-03-14T11:28:17.704Z,967.467
2023-03-14T11:29:17.352Z,967.385
2023-03-14T11:30:17.036Z,967.423
2023-03-14T11:31:18.021Z,967.582
2023-03-14T11:32:17.840Z,967.011
2023-03-14T11:33:17.372Z,967.349
2023-03-14T11:34:17.216Z,967.547
2023-03-14T11:35:17.940Z,967.485
2023-03-14T11:36:17.375Z,967.393
2023-03-14T11:37:17.646Z,967.316
2023-03-14T11:38:17.532Z,967.393
2023-03-14T11:39:18.005Z,967.469
2023-03-14T11:40:17.176Z,967.343
2023-03-14T11:41:17.805Z,967.419
2023-03-14T11:42:17.080Z,967.065
2023-03-14T11:43:17.699Z,967.375
2023-03-14T11:44:17.284Z,967.342
2023-03-14T11:45:17.981Z,967.415
2023-03-14T11:46:17.135Z,967.366
2023-03-14T11:47:17.120Z,967.269
2023-03-14T11:48:17.745Z,967.231
2023-03-14T11:49:17.809Z,967.230
2023-03-14T11:50:17.526Z,967.344
2023-03-14T11:51:17.116Z,967.242
2023-03-14T11:52:17.283Z,967.206
2023-03-14T11:53:17.935Z,967.138
2023-03-14T11:54:17.754Z,967.160
2023-03-14T11:55:17.778Z,967.386
2023-03-14T11:56:17.576Z,967.163
2023-03-14T11:57:17.276Z,967.034
2023-03-14T11:58:19.210Z,967.245
2023-03-14T11:59:17.652Z,967.226
2023-03-14T12:00:17.266Z,967.271
2023-03-14T12:01:17.975Z,967.138
2023-03-14T12:02:17.757Z,967.177
2023-03-14T12:03:17.893Z,967.189
2023-03-14T12:04:17.671Z,967.158
2023-03-14T12:05:17.557Z,967.302
2023-03-14T12:06:17.128Z,967.448
2023-03-14T12:07:17.914Z,967.395